Hamamatsu, Japan
Current Conditions -  °F | °C
As of 12:00 PM on Monday 24 Nov 2014 (Local Time) from RJNS Reporting Station
Few Clouds Few Clouds  
Wind Chill: 64°   Ceiling: Unl
Heat Index: 64°   Visibility: 6mi
Dew Point: 46°   Wind: 8mph
Humidity: 52%   Direction: 250°WSW
Pressure: 30.12"   Gusts: NA
Location:  34.72°N, 137.73°E
Report Text: RJNS 240300Z 25007KT 190V290 9999 FEW030 18/08 Q1020
Loading
Personal Weather Stations






























Interactive Weather Map New forecast layout! Learn more

10-Day Weather Forecast

Advertisements
Track Severe Weather on mobile